createdAt,value
2019-01-22T00:00:26.025Z,31.10
2019-01-22T00:02:54.495Z,31.80
2019-01-22T00:05:22.905Z,30.80
2019-01-22T00:07:51.290Z,31.15
2019-01-22T00:10:19.689Z,31.07
2019-01-22T00:12:48.094Z,31.15
2019-01-22T00:15:17.120Z,32.50
2019-01-22T00:17:45.504Z,32.83
2019-01-22T00:20:15.163Z,31.23
2019-01-22T00:22:43.561Z,31.12
2019-01-22T00:25:15.736Z,29.87
2019-01-22T00:27:44.434Z,32.23
2019-01-22T00:30:18.693Z,31.40
2019-01-22T00:32:47.149Z,31.97
2019-01-22T00:35:15.964Z,30.35
2019-01-22T00:37:44.837Z,32.25
2019-01-22T00:40:16.010Z,30.82
2019-01-22T00:42:45.129Z,31.65
2019-01-22T00:45:14.063Z,29.98
2019-01-22T00:47:42.462Z,30.88
2019-01-22T00:50:13.679Z,29.67
2019-01-22T00:52:42.450Z,29.70
2019-01-22T00:55:13.596Z,29.72
2019-01-22T00:57:42.366Z,29.95
2019-01-22T01:00:17.097Z,31.60
2019-01-22T01:02:45.779Z,29.12
2019-01-22T01:05:15.488Z,31.05
2019-01-22T01:07:44.592Z,29.72
2019-01-22T01:10:14.925Z,29.45
2019-01-22T01:12:43.600Z,29.45
2019-01-22T01:15:14.026Z,31.37
2019-01-22T01:17:42.801Z,29.75
2019-01-22T01:20:19.694Z,29.70
2019-01-22T01:22:48.921Z,30.37
2019-01-22T01:25:19.879Z,31.87
2019-01-22T01:27:48.503Z,31.50
2019-01-22T01:30:22.102Z,31.90
2019-01-22T01:32:50.833Z,31.60
2019-01-22T01:35:19.416Z,32.23
2019-01-22T01:37:48.172Z,30.55
2019-01-22T01:40:18.091Z,29.55
2019-01-22T01:42:46.545Z,29.85
2019-01-22T01:45:16.323Z,31.10
2019-01-22T01:47:44.957Z,29.95
2019-01-22T01:50:17.633Z,28.85
2019-01-22T01:52:46.100Z,29.42
2019-01-22T01:55:17.155Z,29.70
2019-01-22T01:57:45.543Z,30.23
2019-01-22T02:00:17.031Z,29.18
2019-01-22T02:02:45.494Z,29.42
2019-01-22T02:05:14.041Z,29.82
2019-01-22T02:07:42.956Z,29.32
2019-01-22T02:10:16.970Z,29.57
2019-01-22T02:12:48.735Z,29.57
2019-01-22T02:15:23.044Z,29.18
2019-01-22T02:18:06.612Z,30.12
2019-01-22T02:20:54.564Z,28.85
2019-01-22T02:23:30.679Z,29.20
2019-01-22T02:26:20.359Z,28.90
2019-01-22T02:29:00.740Z,29.77
2019-01-22T02:31:38.109Z,31.05
2019-01-22T02:34:15.728Z,30.65
2019-01-22T02:37:04.373Z,30.02
2019-01-22T02:39:53.879Z,30.55
2019-01-22T02:42:28.328Z,29.80
2019-01-22T02:45:18.578Z,28.62
2019-01-22T02:47:52.920Z,30.68
2019-01-22T02:50:24.441Z,30.08
2019-01-22T02:52:58.540Z,28.02
2019-01-22T02:55:35.751Z,30.17
2019-01-22T02:58:16.022Z,28.02
2019-01-22T03:00:55.762Z,29.32
2019-01-22T03:03:39.454Z,29.35
2019-01-22T03:06:13.778Z,29.57
2019-01-22T03:08:50.982Z,29.12
2019-01-22T03:11:28.399Z,29.65
2019-01-22T03:14:20.933Z,30.32
2019-01-22T03:17:10.776Z,29.48
2019-01-22T03:19:57.130Z,28.80
2019-01-22T03:22:48.080Z,27.13
2019-01-22T03:25:19.527Z,29.00
2019-01-22T03:28:00.062Z,28.23
2019-01-22T03:30:46.616Z,27.55
2019-01-22T03:33:32.708Z,29.80
2019-01-22T03:36:04.460Z,28.15
2019-01-22T03:38:41.781Z,31.90
2019-01-22T03:41:22.121Z,28.98
2019-01-22T03:43:56.624Z,29.95
2019-01-22T03:46:31.096Z,29.92
2019-01-22T03:49:04.987Z,27.15
2019-01-22T03:51:37.021Z,29.07
2019-01-22T03:54:14.818Z,27.75
2019-01-22T03:56:49.366Z,29.65
2019-01-22T03:59:17.774Z,29.20
2019-01-22T04:01:46.455Z,28.50
2019-01-22T04:04:14.860Z,30.17
2019-01-22T04:06:43.319Z,31.70
2019-01-22T04:09:15.331Z,29.15
2019-01-22T04:11:44.429Z,30.37
2019-01-22T04:14:13.393Z,28.80
2019-01-22T04:16:41.803Z,28.52
2019-01-22T04:19:10.189Z,29.40
2019-01-22T04:21:38.994Z,29.10
2019-01-22T04:24:23.045Z,27.50
2019-01-22T04:27:00.312Z,27.55
2019-01-22T04:29:48.351Z,29.82
2019-01-22T04:32:20.464Z,26.12
2019-01-22T04:34:52.153Z,29.48
2019-01-22T04:37:32.455Z,27.60
2019-01-22T04:40:21.917Z,27.55
2019-01-22T04:43:09.492Z,28.07
2019-01-22T04:45:57.363Z,27.25
2019-01-22T04:48:43.862Z,26.02
2019-01-22T04:51:17.820Z,27.27
2019-01-22T04:53:52.072Z,27.98
2019-01-22T04:56:40.196Z,28.47
2019-01-22T04:59:36.635Z,27.98
2019-01-22T05:02:20.229Z,25.55
2019-01-22T05:04:51.688Z,26.23
2019-01-22T05:07:41.319Z,26.35
2019-01-22T05:10:18.932Z,28.73
2019-01-22T05:13:18.134Z,25.10
2019-01-22T05:16:08.942Z,26.52
2019-01-22T05:18:46.063Z,27.10
2019-01-22T05:21:40.994Z,26.37
2019-01-22T05:24:17.605Z,26.02
2019-01-22T05:27:03.712Z,24.98
2019-01-22T05:29:41.109Z,25.97
2019-01-22T05:32:18.393Z,25.30
2019-01-22T05:34:55.736Z,25.60
2019-01-22T05:37:27.422Z,27.50
2019-01-22T05:40:13.782Z,26.37
2019-01-22T05:42:50.676Z,24.18
2019-01-22T05:45:24.904Z,24.43
2019-01-22T05:47:56.359Z,25.65
2019-01-22T05:50:40.212Z,25.35
2019-01-22T05:53:23.417Z,25.77
2019-01-22T05:55:57.676Z,26.12
2019-01-22T05:58:37.646Z,26.40
2019-01-22T06:01:09.081Z,27.77
2019-01-22T06:03:46.407Z,26.75
2019-01-22T06:06:37.265Z,26.50
2019-01-22T06:09:23.651Z,28.45
2019-01-22T06:12:00.649Z,26.97
2019-01-22T06:14:37.520Z,27.50
2019-01-22T06:17:29.447Z,24.85
2019-01-22T06:20:19.348Z,26.07
2019-01-22T06:23:07.151Z,27.15
2019-01-22T06:25:41.407Z,27.42
2019-01-22T06:28:21.435Z,26.33
2019-01-22T06:31:01.602Z,26.93
2019-01-22T06:33:42.268Z,27.35
2019-01-22T06:36:28.655Z,27.95
2019-01-22T06:39:00.115Z,28.32
2019-01-22T06:41:58.677Z,27.67
2019-01-22T06:44:49.592Z,27.90
2019-01-22T06:47:27.300Z,28.65
2019-01-22T06:50:19.826Z,28.02
2019-01-22T06:52:57.176Z,28.80
2019-01-22T06:55:34.318Z,30.10
2019-01-22T06:58:17.630Z,27.87
2019-01-22T07:01:10.201Z,28.17
2019-01-22T07:03:47.360Z,28.95
2019-01-22T07:06:27.864Z,29.92
2019-01-22T07:09:02.720Z,30.50
2019-01-22T07:11:49.017Z,28.27
2019-01-22T07:14:29.160Z,29.07
2019-01-22T07:17:06.720Z,29.30
2019-01-22T07:20:02.433Z,30.75
2019-01-22T07:22:45.561Z,29.10
2019-01-22T07:25:22.712Z,30.30
2019-01-22T07:28:05.866Z,30.35
2019-01-22T07:31:10.971Z,31.02
2019-01-22T07:34:01.604Z,30.55
2019-01-22T07:36:48.115Z,28.70
2019-01-22T07:39:25.348Z,30.30
2019-01-22T07:42:15.213Z,31.23
2019-01-22T07:44:55.552Z,30.90
2019-01-22T07:47:29.954Z,29.87
2019-01-22T07:50:13.091Z,31.65
2019-01-22T07:52:47.918Z,31.20
2019-01-22T07:55:44.995Z,30.82
2019-01-22T07:58:47.916Z,30.80
2019-01-22T08:01:31.311Z,29.80
2019-01-22T08:04:22.505Z,29.65
2019-01-22T08:06:55.592Z,27.30
2019-01-22T08:09:43.507Z,29.80
2019-01-22T08:12:38.675Z,28.75
2019-01-22T08:15:16.314Z,28.85
2019-01-22T08:17:50.470Z,29.65
2019-01-22T08:20:31.104Z,28.45
2019-01-22T08:23:08.499Z,29.00
2019-01-22T08:25:58.378Z,29.65
2019-01-22T08:28:38.609Z,29.65
2019-01-22T08:31:26.735Z,27.62
2019-01-22T08:34:13.602Z,27.85
2019-01-22T08:37:03.532Z,28.42
2019-01-22T08:39:47.076Z,28.73
2019-01-22T08:42:37.001Z,27.05
2019-01-22T08:45:11.203Z,29.27
2019-01-22T08:47:45.425Z,25.48
2019-01-22T08:50:29.159Z,26.42
2019-01-22T08:53:06.461Z,27.55
2019-01-22T08:55:43.440Z,25.02
2019-01-22T08:58:27.279Z,26.70
2019-01-22T09:01:07.912Z,25.57
2019-01-22T09:03:54.385Z,26.25
2019-01-22T09:06:29.176Z,25.57
2019-01-22T09:09:12.194Z,26.17
2019-01-22T09:12:04.684Z,27.13
2019-01-22T09:14:54.171Z,26.68
2019-01-22T09:17:31.605Z,24.45
2019-01-22T09:20:03.365Z,27.60
2019-01-22T09:22:53.455Z,26.75
2019-01-22T09:25:27.875Z,25.82
2019-01-22T09:28:05.409Z,26.33
2019-01-22T09:30:42.779Z,26.55
2019-01-22T09:33:23.010Z,27.27
2019-01-22T09:35:57.541Z,26.95
2019-01-22T09:38:26.220Z,26.85
2019-01-22T09:40:54.617Z,27.95
2019-01-22T09:43:23.034Z,25.05
2019-01-22T09:45:51.447Z,26.68
2019-01-22T09:48:19.855Z,27.25
2019-01-22T09:50:48.263Z,26.62
2019-01-22T09:53:17.008Z,25.92
2019-01-22T09:55:45.435Z,25.37
2019-01-22T09:58:13.888Z,25.75
2019-01-22T10:00:42.486Z,26.45
2019-01-22T10:03:10.900Z,27.60
2019-01-22T10:05:39.929Z,26.60
2019-01-22T10:08:08.330Z,26.70
2019-01-22T10:10:36.987Z,25.75
2019-01-22T10:13:05.631Z,27.75
2019-01-22T10:15:34.095Z,28.05
2019-01-22T10:18:02.583Z,28.38
2019-01-22T10:20:31.152Z,27.42
2019-01-22T10:22:59.912Z,26.52
2019-01-22T10:25:29.534Z,28.23
2019-01-22T10:27:58.207Z,26.55
2019-01-22T10:30:27.075Z,24.95
2019-01-22T10:32:55.744Z,26.70
2019-01-22T10:35:24.120Z,27.62
2019-01-22T10:37:52.521Z,27.87
2019-01-22T10:40:24.013Z,27.15
2019-01-22T10:42:52.607Z,27.52
2019-01-22T10:45:21.539Z,27.35
2019-01-22T10:47:50.109Z,26.65
2019-01-22T10:50:22.889Z,28.70
2019-01-22T10:52:51.518Z,27.30
2019-01-22T10:55:19.974Z,27.47
2019-01-22T10:57:48.443Z,28.67
2019-01-22T11:00:22.679Z,28.13
2019-01-22T11:02:51.381Z,28.73
2019-01-22T11:05:22.984Z,28.47
2019-01-22T11:07:51.615Z,29.73
2019-01-22T11:10:20.013Z,28.57
2019-01-22T11:12:48.490Z,27.93
2019-01-22T11:15:16.964Z,29.27
2019-01-22T11:17:45.660Z,28.52
2019-01-22T11:20:22.603Z,28.30
2019-01-22T11:22:51.035Z,27.73
2019-01-22T11:25:23.063Z,27.75
2019-01-22T11:27:51.531Z,28.70
2019-01-22T11:30:24.558Z,28.27
2019-01-22T11:32:53.030Z,29.10
2019-01-22T11:35:25.197Z,30.27
2019-01-22T11:37:53.857Z,28.47
2019-01-22T11:40:31.060Z,27.02
2019-01-22T11:42:59.459Z,27.85
2019-01-22T11:45:28.165Z,27.30
2019-01-22T11:47:56.806Z,26.75
2019-01-22T11:50:25.228Z,28.23
2019-01-22T11:52:53.611Z,30.85
2019-01-22T11:55:22.018Z,29.32
2019-01-22T11:57:50.746Z,28.30
2019-01-22T12:00:23.826Z,28.42
2019-01-22T12:02:52.516Z,26.45
2019-01-22T12:05:20.999Z,27.45
2019-01-22T12:07:49.390Z,28.27
2019-01-22T12:10:17.781Z,29.10
2019-01-22T12:12:46.194Z,28.40
2019-01-22T12:15:17.307Z,27.83
2019-01-22T12:17:46.140Z,26.20
2019-01-22T12:20:23.623Z,26.13
2019-01-22T12:22:52.326Z,30.30
2019-01-22T12:25:20.706Z,29.13
2019-01-22T12:27:49.184Z,28.30
2019-01-22T12:30:29.979Z,25.97
2019-01-22T12:32:58.695Z,26.03
2019-01-22T12:35:27.124Z,25.90
2019-01-22T12:37:56.748Z,26.77
2019-01-22T12:40:28.153Z,26.77
2019-01-22T12:42:57.615Z,26.53
2019-01-22T12:45:32.214Z,27.37
2019-01-22T12:48:00.916Z,26.57
2019-01-22T12:50:29.372Z,27.67
2019-01-22T12:52:57.786Z,29.35
2019-01-22T12:55:26.188Z,28.20
2019-01-22T12:57:54.846Z,28.60
2019-01-22T13:00:34.719Z,25.60
2019-01-22T13:03:03.218Z,27.20
2019-01-22T13:05:46.490Z,28.43
2019-01-22T13:08:15.191Z,25.50
2019-01-22T13:10:43.976Z,26.50
2019-01-22T13:13:12.380Z,26.70
2019-01-22T13:15:40.787Z,26.07
2019-01-22T13:18:09.520Z,24.93
2019-01-22T13:20:42.947Z,26.30
2019-01-22T13:23:12.107Z,25.23
2019-01-22T13:25:40.832Z,26.23
2019-01-22T13:28:09.297Z,25.40
2019-01-22T13:30:37.709Z,25.55
2019-01-22T13:33:06.814Z,26.05
2019-01-22T13:35:35.257Z,27.17
2019-01-22T13:38:03.741Z,25.82
2019-01-22T13:40:32.312Z,26.50
2019-01-22T13:43:00.714Z,26.65
2019-01-22T13:45:32.138Z,25.57
2019-01-22T13:48:02.185Z,26.65
2019-01-22T13:50:30.745Z,26.43
2019-01-22T13:52:59.527Z,25.97
2019-01-22T13:55:30.467Z,26.30
2019-01-22T13:57:58.934Z,26.45
2019-01-22T14:00:28.761Z,25.05
2019-01-22T14:02:59.681Z,25.72
2019-01-22T14:05:28.806Z,24.40
2019-01-22T14:07:57.483Z,26.10
2019-01-22T14:10:25.903Z,26.42
2019-01-22T14:12:54.361Z,26.37
2019-01-22T14:15:35.934Z,26.77
2019-01-22T14:18:04.941Z,26.85
2019-01-22T14:20:33.710Z,26.13
2019-01-22T14:23:06.346Z,26.15
2019-01-22T14:25:35.091Z,25.12
2019-01-22T14:28:04.650Z,28.32
2019-01-22T14:30:38.233Z,26.62
2019-01-22T14:33:10.661Z,25.52
2019-01-22T14:35:41.079Z,25.90
2019-01-22T14:38:15.497Z,25.27
2019-01-22T14:40:43.918Z,24.80
2019-01-22T14:43:13.965Z,26.65
2019-01-22T14:45:42.958Z,26.35
2019-01-22T14:48:11.340Z,27.30
2019-01-22T14:50:39.915Z,26.30
2019-01-22T14:53:08.737Z,27.63
2019-01-22T14:55:37.311Z,27.67
2019-01-22T14:58:07.449Z,28.32
2019-01-22T15:00:35.986Z,27.22
2019-01-22T15:03:05.337Z,28.85
2019-01-22T15:05:33.743Z,27.82
2019-01-22T15:08:05.379Z,25.02
2019-01-22T15:10:33.794Z,29.40
2019-01-22T15:13:02.513Z,27.05
2019-01-22T15:15:31.240Z,27.07
2019-01-22T15:17:59.728Z,27.85
2019-01-22T15:20:30.880Z,27.80
2019-01-22T15:22:59.248Z,27.37
2019-01-22T15:25:27.939Z,28.30
2019-01-22T15:27:57.424Z,28.10
2019-01-22T15:30:28.930Z,27.37
2019-01-22T15:32:58.332Z,29.40
2019-01-22T15:35:30.534Z,27.70
2019-01-22T15:37:58.660Z,28.42
2019-01-22T15:40:29.455Z,28.12
2019-01-22T15:43:00.297Z,27.30
2019-01-22T15:45:29.054Z,28.62
2019-01-22T15:47:57.894Z,27.70
2019-01-22T15:50:38.487Z,27.52
2019-01-22T15:53:07.038Z,26.90
2019-01-22T15:55:36.220Z,27.73
2019-01-22T15:58:05.444Z,26.65
2019-01-22T16:00:38.406Z,26.45
2019-01-22T16:03:07.051Z,28.70
2019-01-22T16:05:35.529Z,27.02
2019-01-22T16:08:09.110Z,29.60
2019-01-22T16:10:37.527Z,28.80
2019-01-22T16:13:06.204Z,29.23
2019-01-22T16:15:35.175Z,30.75
2019-01-22T16:18:03.648Z,28.67
2019-01-22T16:20:32.128Z,28.83
2019-01-22T16:23:00.625Z,30.10
2019-01-22T16:25:29.487Z,27.87
2019-01-22T16:27:57.892Z,27.82
2019-01-22T16:30:27.284Z,28.67
2019-01-22T16:32:58.333Z,29.37
2019-01-22T16:35:26.861Z,29.35
2019-01-22T16:37:55.705Z,28.15
2019-01-22T16:40:24.722Z,30.62
2019-01-22T16:42:53.279Z,30.43
2019-01-22T16:45:24.664Z,27.80
2019-01-22T16:47:53.339Z,29.30
2019-01-22T16:50:27.654Z,30.45
2019-01-22T16:52:57.231Z,27.40
2019-01-22T16:55:34.361Z,26.75
2019-01-22T16:58:02.920Z,26.73
2019-01-22T17:00:33.844Z,28.87
2019-01-22T17:03:03.213Z,26.60
2019-01-22T17:05:32.053Z,28.73
2019-01-22T17:08:00.910Z,30.25
2019-01-22T17:10:30.676Z,27.95
2019-01-22T17:12:59.227Z,28.95
2019-01-22T17:15:27.847Z,27.93
2019-01-22T17:17:56.294Z,31.10
2019-01-22T17:20:27.645Z,30.08
2019-01-22T17:23:01.994Z,29.82
2019-01-22T17:25:26.496Z,30.35
2019-01-22T17:27:58.555Z,30.50
2019-01-22T17:30:27.113Z,28.20
2019-01-22T17:33:12.472Z,30.37
2019-01-22T17:35:42.596Z,28.80
2019-01-22T17:38:10.988Z,27.40
2019-01-22T17:40:39.662Z,29.35
2019-01-22T17:43:09.028Z,29.45
2019-01-22T17:45:37.420Z,29.45
2019-01-22T17:48:07.065Z,29.55
2019-01-22T17:50:35.461Z,31.48
2019-01-22T17:53:07.662Z,30.12
2019-01-22T17:55:34.360Z,30.05
2019-01-22T17:58:03.118Z,27.52
2019-01-22T18:00:33.623Z,28.30
2019-01-22T18:03:02.032Z,28.27
2019-01-22T18:05:30.504Z,30.88
2019-01-22T18:07:58.898Z,31.27
2019-01-22T18:10:28.240Z,27.95
2019-01-22T18:12:56.714Z,28.57
2019-01-22T18:15:25.339Z,27.93
2019-01-22T18:17:53.737Z,28.55
2019-01-22T18:20:24.706Z,30.95
2019-01-22T18:22:53.439Z,29.90
2019-01-22T18:25:21.832Z,29.12
2019-01-22T18:27:50.316Z,29.98
2019-01-22T18:30:24.087Z,29.30
2019-01-22T18:32:52.563Z,28.90
2019-01-22T18:35:27.170Z,29.85
2019-01-22T18:37:55.902Z,33.00
2019-01-22T18:40:24.368Z,28.90
2019-01-22T18:42:53.063Z,30.12
2019-01-22T18:45:21.673Z,28.90
2019-01-22T18:47:51.127Z,30.23
2019-01-22T18:50:23.510Z,31.77
2019-01-22T18:52:52.101Z,29.55
2019-01-22T18:55:21.172Z,31.23
2019-01-22T18:57:49.551Z,31.30
2019-01-22T19:00:21.800Z,30.50
2019-01-22T19:02:50.473Z,32.10
2019-01-22T19:05:21.059Z,31.10
2019-01-22T19:07:50.089Z,32.90
2019-01-22T19:10:23.845Z,30.95
2019-01-22T19:12:52.338Z,33.10
2019-01-22T19:15:22.013Z,32.03
2019-01-22T19:17:50.869Z,32.30
2019-01-22T19:20:19.377Z,32.67
2019-01-22T19:22:48.098Z,32.25
2019-01-22T19:25:21.693Z,33.38
2019-01-22T19:27:50.641Z,35.50
2019-01-22T19:30:24.528Z,34.00
2019-01-22T19:32:52.915Z,34.35
2019-01-22T19:35:21.593Z,34.65
2019-01-22T19:37:49.997Z,33.00
2019-01-22T19:40:19.672Z,34.70
2019-01-22T19:42:48.508Z,33.00
2019-01-22T19:45:19.675Z,34.05
2019-01-22T19:47:48.167Z,33.90
2019-01-22T19:50:17.279Z,33.88
2019-01-22T19:52:45.973Z,37.95
2019-01-22T19:55:14.848Z,35.43
2019-01-22T19:57:43.291Z,36.48
2019-01-22T20:00:17.918Z,35.52
2019-01-22T20:02:46.428Z,34.70
2019-01-22T20:05:15.559Z,34.40
2019-01-22T20:07:44.106Z,35.13
2019-01-22T20:10:15.466Z,36.15
2019-01-22T20:12:43.925Z,34.67
2019-01-22T20:15:15.310Z,36.15
2019-01-22T20:17:43.776Z,34.80
2019-01-22T20:20:15.063Z,36.17
2019-01-22T20:22:43.654Z,36.48
2019-01-22T20:25:12.727Z,36.28
2019-01-22T20:27:47.643Z,33.90
2019-01-22T20:30:25.738Z,36.13
2019-01-22T20:32:54.168Z,35.48
2019-01-22T20:35:22.560Z,36.15
2019-01-22T20:37:51.328Z,36.98
2019-01-22T20:40:20.212Z,36.15
2019-01-22T20:42:48.889Z,36.40
2019-01-22T20:45:20.263Z,35.13
2019-01-22T20:47:48.664Z,34.75
2019-01-22T20:50:19.327Z,38.05
2019-01-22T20:52:47.263Z,32.95
2019-01-22T20:55:24.004Z,36.68
2019-01-22T20:57:55.003Z,33.35
2019-01-22T21:00:24.441Z,36.48
2019-01-22T21:02:53.098Z,34.65
2019-01-22T21:05:26.546Z,35.55
2019-01-22T21:07:55.005Z,35.68
2019-01-22T21:10:29.248Z,35.15
2019-01-22T21:12:58.009Z,34.88
2019-01-22T21:15:26.738Z,35.15
2019-01-22T21:17:55.146Z,34.80
2019-01-22T21:20:23.586Z,33.70
2019-01-22T21:22:52.471Z,36.33
2019-01-22T21:25:22.718Z,36.30
2019-01-22T21:27:51.505Z,34.67
2019-01-22T21:30:28.059Z,37.60
2019-01-22T21:32:56.532Z,34.55
2019-01-22T21:35:24.946Z,36.00
2019-01-22T21:37:53.669Z,36.77
2019-01-22T21:40:22.060Z,35.95
2019-01-22T21:42:50.908Z,37.15
2019-01-22T21:45:22.040Z,35.60
2019-01-22T21:47:50.437Z,36.38
2019-01-22T21:50:18.981Z,35.35
2019-01-22T21:52:47.393Z,35.80
2019-01-22T21:55:20.958Z,34.65
2019-01-22T21:57:49.515Z,34.92
2019-01-22T22:00:20.653Z,34.95
2019-01-22T22:02:49.320Z,36.35
2019-01-22T22:05:20.282Z,36.42
2019-01-22T22:07:48.840Z,41.00
2019-01-22T22:10:19.076Z,35.70
2019-01-22T22:12:47.899Z,36.63
2019-01-22T22:15:19.658Z,37.38
2019-01-22T22:17:48.534Z,35.43
2019-01-22T22:20:18.132Z,37.38
2019-01-22T22:22:47.023Z,37.45
2019-01-22T22:25:20.309Z,36.45
2019-01-22T22:27:48.792Z,36.38
2019-01-22T22:30:23.037Z,37.85
2019-01-22T22:32:51.727Z,36.42
2019-01-22T22:35:20.249Z,36.95
2019-01-22T22:37:48.898Z,36.15
2019-01-22T22:40:19.701Z,39.18
2019-01-22T22:42:48.087Z,38.85
2019-01-22T22:45:18.908Z,36.23
2019-01-22T22:47:47.704Z,38.73
2019-01-22T22:50:21.546Z,37.42
2019-01-22T22:52:50.169Z,37.23
2019-01-22T22:55:18.890Z,37.78
2019-01-22T22:57:47.314Z,35.78
2019-01-22T23:00:32.724Z,38.65
2019-01-22T23:03:02.366Z,37.73
2019-01-22T23:05:31.015Z,36.85
2019-01-22T23:07:59.827Z,36.93
2019-01-22T23:10:28.393Z,39.30
2019-01-22T23:12:57.096Z,37.10
2019-01-22T23:15:25.636Z,36.38
2019-01-22T23:17:54.267Z,38.10
2019-01-22T23:20:22.944Z,37.75
2019-01-22T23:22:51.400Z,38.67
2019-01-22T23:25:19.792Z,36.70
2019-01-22T23:27:48.196Z,35.05
2019-01-22T23:30:17.798Z,36.45
2019-01-22T23:32:46.325Z,35.73
2019-01-22T23:35:16.465Z,37.70
2019-01-22T23:37:49.432Z,39.00
2019-01-22T23:40:18.173Z,38.73
2019-01-22T23:42:50.144Z,38.33
2019-01-22T23:45:19.040Z,36.03
2019-01-22T23:47:48.248Z,35.95
2019-01-22T23:50:17.165Z,38.20
2019-01-22T23:52:45.902Z,36.77
2019-01-22T23:55:14.750Z,36.95
2019-01-22T23:57:43.142Z,37.83
